sensor_id;sensor_type;location;lat;lon;timestamp;temperature;humidity
1578;DHT22;57623;53.608;10.004;2024-01-07T00:01:13;-0.40;99.90
1578;DHT22;57623;53.608;10.004;2024-01-07T00:03:41;-0.40;99.90
1578;DHT22;57623;53.608;10.004;2024-01-07T00:06:10;-0.40;99.90
1578;DHT22;57623;53.608;10.004;2024-01-07T00:08:38;-0.50;99.90
1578;DHT22;57623;53.608;10.004;2024-01-07T00:11:07;-0.50;99.90
1578;DHT22;57623;53.608;10.004;2024-01-07T00:13:36;-0.50;99.90
1578;DHT22;57623;53.608;10.004;2024-01-07T00:16:04;-0.60;99.90
1578;DHT22;57623;53.608;10.004;2024-01-07T00:18:32;-0.60;99.90
1578;DHT22;57623;53.608;10.004;2024-01-07T00:21:01;-0.60;99.90
1578;DHT22;57623;53.608;10.004;2024-01-07T00:23:29;-0.60;99.90
1578;DHT22;57623;53.608;10.004;2024-01-07T00:25:57;-0.70;99.90
1578;DHT22;57623;53.608;10.004;2024-01-07T00:28:26;-0.70;99.90
1578;DHT22;57623;53.608;10.004;2024-01-07T00:30:54;-0.70;99.90
1578;DHT22;57623;53.608;10.004;2024-01-07T00:33:22;-0.80;99.90
1578;DHT22;57623;53.608;10.004;2024-01-07T00:35:50;-0.80;99.90
1578;DHT22;57623;53.608;10.004;2024-01-07T00:38:18;-0.80;99.90
1578;DHT22;57623;53.608;10.004;2024-01-07T00:40:46;-0.80;99.90
1578;DHT22;57623;53.608;10.004;2024-01-07T00:43:14;-0.80;99.90
1578;DHT22;57623;53.608;10.004;2024-01-07T00:45:44;-0.80;99.90
1578;DHT22;57623;53.608;10.004;2024-01-07T00:48:12;-0.80;99.90
1578;DHT22;57623;53.608;10.004;2024-01-07T00:50:40;-0.80;99.90
1578;DHT22;57623;53.608;10.004;2024-01-07T00:53:08;-0.80;99.90
1578;DHT22;57623;53.608;10.004;2024-01-07T00:55:36;-0.80;99.90
1578;DHT22;57623;53.608;10.004;2024-01-07T00:58:04;-0.80;99.90
1578;DHT22;57623;53.608;10.004;2024-01-07T01:00:32;-0.80;99.90
1578;DHT22;57623;53.608;10.004;2024-01-07T01:03:02;-0.80;99.90
1578;DHT22;57623;53.608;10.004;2024-01-07T01:05:30;-0.80;99.90
1578;DHT22;57623;53.608;10.004;2024-01-07T01:07:58;-0.80;99.90
1578;DHT22;57623;53.608;10.004;2024-01-07T01:10:26;-0.80;99.90
1578;DHT22;57623;53.608;10.004;2024-01-07T01:12:54;-0.80;99.90
1578;DHT22;57623;53.608;10.004;2024-01-07T01:15:22;-0.80;99.90
1578;DHT22;57623;53.608;10.004;2024-01-07T01:17:50;-0.80;99.90
1578;DHT22;57623;53.608;10.004;2024-01-07T01:20:19;-0.80;99.90
1578;DHT22;57623;53.608;10.004;2024-01-07T01:22:47;-0.80;99.90
1578;DHT22;57623;53.608;10.004;2024-01-07T01:25:15;-0.80;99.90
1578;DHT22;57623;53.608;10.004;2024-01-07T01:27:43;-0.90;99.90
1578;DHT22;57623;53.608;10.004;2024-01-07T01:30:11;-0.90;99.90
1578;DHT22;57623;53.608;10.004;2024-01-07T01:32:40;-0.90;99.90
1578;DHT22;57623;53.608;10.004;2024-01-07T01:35:09;-1.00;99.90
1578;DHT22;57623;53.608;10.004;2024-01-07T01:37:38;-1.00;99.90
1578;DHT22;57623;53.608;10.004;2024-01-07T01:40:07;-1.00;99.90
1578;DHT22;57623;53.608;10.004;2024-01-07T01:42:35;-1.00;99.90
1578;DHT22;57623;53.608;10.004;2024-01-07T01:45:04;-1.00;99.90
1578;DHT22;57623;53.608;10.004;2024-01-07T01:47:32;-1.00;99.90
1578;DHT22;57623;53.608;10.004;2024-01-07T01:50:00;-1.00;99.90
1578;DHT22;57623;53.608;10.004;2024-01-07T01:52:28;-1.00;99.90
1578;DHT22;57623;53.608;10.004;2024-01-07T01:54:58;-1.00;99.90
1578;DHT22;57623;53.608;10.004;2024-01-07T01:57:32;-1.00;99.90
1578;DHT22;57623;53.608;10.004;2024-01-07T02:00:01;-1.00;99.90
1578;DHT22;57623;53.608;10.004;2024-01-07T02:02:31;-1.00;99.90
1578;DHT22;57623;53.608;10.004;2024-01-07T02:05:01;-0.90;99.90
1578;DHT22;57623;53.608;10.004;2024-01-07T02:07:30;-0.90;99.90
1578;DHT22;57623;53.608;10.004;2024-01-07T02:09:59;-0.90;99.90
1578;DHT22;57623;53.608;10.004;2024-01-07T02:12:28;-0.90;99.90
1578;DHT22;57623;53.608;10.004;2024-01-07T02:14:56;-0.90;99.90
1578;DHT22;57623;53.608;10.004;2024-01-07T02:17:24;-0.90;99.90
1578;DHT22;57623;53.608;10.004;2024-01-07T02:19:52;-0.90;99.90
1578;DHT22;57623;53.608;10.004;2024-01-07T02:22:20;-0.90;99.90
1578;DHT22;57623;53.608;10.004;2024-01-07T02:24:50;-0.90;99.90
1578;DHT22;57623;53.608;10.004;2024-01-07T02:27:18;-0.80;99.90
1578;DHT22;57623;53.608;10.004;2024-01-07T02:29:46;-0.80;99.90
1578;DHT22;57623;53.608;10.004;2024-01-07T02:32:14;-0.80;99.90
1578;DHT22;57623;53.608;10.004;2024-01-07T02:34:41;-0.80;99.90
1578;DHT22;57623;53.608;10.004;2024-01-07T02:37:11;-0.80;99.90
1578;DHT22;57623;53.608;10.004;2024-01-07T02:39:39;-0.70;99.90
1578;DHT22;57623;53.608;10.004;2024-01-07T02:42:11;-0.70;99.90
1578;DHT22;57623;53.608;10.004;2024-01-07T02:44:38;-0.70;99.90
1578;DHT22;57623;53.608;10.004;2024-01-07T02:47:06;-0.70;99.90
1578;DHT22;57623;53.608;10.004;2024-01-07T02:49:34;-0.70;99.90
1578;DHT22;57623;53.608;10.004;2024-01-07T02:52:03;-0.60;99.90
1578;DHT22;57623;53.608;10.004;2024-01-07T02:54:31;-0.60;99.90
1578;DHT22;57623;53.608;10.004;2024-01-07T02:56:59;-0.60;99.90
1578;DHT22;57623;53.608;10.004;2024-01-07T02:59:28;-0.60;99.90
1578;DHT22;57623;53.608;10.004;2024-01-07T03:01:56;-0.50;99.90
1578;DHT22;57623;53.608;10.004;2024-01-07T03:04:24;-0.50;99.90
1578;DHT22;57623;53.608;10.004;2024-01-07T03:06:52;-0.50;99.90
1578;DHT22;57623;53.608;10.004;2024-01-07T03:09:20;-0.50;99.90
1578;DHT22;57623;53.608;10.004;2024-01-07T03:11:48;-0.50;99.90
1578;DHT22;57623;53.608;10.004;2024-01-07T03:14:16;-0.40;99.90
1578;DHT22;57623;53.608;10.004;2024-01-07T03:16:48;-0.40;99.90
1578;DHT22;57623;53.608;10.004;2024-01-07T03:19:16;-0.40;99.90
1578;DHT22;57623;53.608;10.004;2024-01-07T03:21:44;-0.50;99.90
1578;DHT22;57623;53.608;10.004;2024-01-07T03:24:12;-0.40;99.90
1578;DHT22;57623;53.608;10.004;2024-01-07T03:26:40;-0.40;99.90
1578;DHT22;57623;53.608;10.004;2024-01-07T03:29:08;-0.40;99.90
1578;DHT22;57623;53.608;10.004;2024-01-07T03:31:36;-0.40;99.90
1578;DHT22;57623;53.608;10.004;2024-01-07T03:34:06;-0.30;99.90
1578;DHT22;57623;53.608;10.004;2024-01-07T03:36:34;-0.30;99.90
1578;DHT22;57623;53.608;10.004;2024-01-07T03:39:02;-0.40;99.90
1578;DHT22;57623;53.608;10.004;2024-01-07T03:41:30;-0.30;99.90
1578;DHT22;57623;53.608;10.004;2024-01-07T03:43:58;-0.30;99.90
1578;DHT22;57623;53.608;10.004;2024-01-07T03:46:26;-0.30;99.90
1578;DHT22;57623;53.608;10.004;2024-01-07T03:48:54;-0.20;99.90
1578;DHT22;57623;53.608;10.004;2024-01-07T03:51:23;-0.20;99.90
1578;DHT22;57623;53.608;10.004;2024-01-07T03:53:51;-0.20;99.90
1578;DHT22;57623;53.608;10.004;2024-01-07T03:56:19;-0.20;99.90
1578;DHT22;57623;53.608;10.004;2024-01-07T03:58:47;-0.20;99.90
1578;DHT22;57623;53.608;10.004;2024-01-07T04:01:16;-0.20;99.90
1578;DHT22;57623;53.608;10.004;2024-01-07T04:03:44;-0.20;99.90
1578;DHT22;57623;53.608;10.004;2024-01-07T04:06:13;-0.20;99.90
1578;DHT22;57623;53.608;10.004;2024-01-07T04:08:42;-0.10;99.90
1578;DHT22;57623;53.608;10.004;2024-01-07T04:11:10;-0.10;99.90
1578;DHT22;57623;53.608;10.004;2024-01-07T04:13:38;-0.10;99.90
1578;DHT22;57623;53.608;10.004;2024-01-07T04:16:06;-0.10;99.90
1578;DHT22;57623;53.608;10.004;2024-01-07T04:18:42;-0.10;99.90
1578;DHT22;57623;53.608;10.004;2024-01-07T04:21:11;-0.10;99.90
1578;DHT22;57623;53.608;10.004;2024-01-07T04:23:39;-0.10;99.90
1578;DHT22;57623;53.608;10.004;2024-01-07T04:26:09;-0.10;99.90
1578;DHT22;57623;53.608;10.004;2024-01-07T04:28:40;0.00;99.90
1578;DHT22;57623;53.608;10.004;2024-01-07T04:31:08;0.00;99.90
1578;DHT22;57623;53.608;10.004;2024-01-07T04:33:37;0.00;99.90
1578;DHT22;57623;53.608;10.004;2024-01-07T04:36:06;0.00;99.90
1578;DHT22;57623;53.608;10.004;2024-01-07T04:38:34;0.00;99.90
1578;DHT22;57623;53.608;10.004;2024-01-07T04:41:03;0.00;99.90
1578;DHT22;57623;53.608;10.004;2024-01-07T04:43:35;0.10;99.90
1578;DHT22;57623;53.608;10.004;2024-01-07T04:46:03;0.20;99.90
1578;DHT22;57623;53.608;10.004;2024-01-07T04:48:32;0.20;99.90
1578;DHT22;57623;53.608;10.004;2024-01-07T04:51:00;0.20;99.90
1578;DHT22;57623;53.608;10.004;2024-01-07T04:53:28;0.20;99.90
1578;DHT22;57623;53.608;10.004;2024-01-07T04:55:56;0.20;99.90
1578;DHT22;57623;53.608;10.004;2024-01-07T04:58:24;0.20;99.90
1578;DHT22;57623;53.608;10.004;2024-01-07T05:00:53;0.20;99.90
1578;DHT22;57623;53.608;10.004;2024-01-07T05:03:21;0.20;99.90
1578;DHT22;57623;53.608;10.004;2024-01-07T05:05:49;0.20;99.90
1578;DHT22;57623;53.608;10.004;2024-01-07T05:08:17;0.20;99.90
1578;DHT22;57623;53.608;10.004;2024-01-07T05:10:45;0.20;99.90
1578;DHT22;57623;53.608;10.004;2024-01-07T05:13:13;0.30;99.90
1578;DHT22;57623;53.608;10.004;2024-01-07T05:15:41;0.20;99.90
1578;DHT22;57623;53.608;10.004;2024-01-07T05:18:11;0.20;99.90
1578;DHT22;57623;53.608;10.004;2024-01-07T05:20:41;0.30;99.90
1578;DHT22;57623;53.608;10.004;2024-01-07T05:23:09;0.20;99.90
1578;DHT22;57623;53.608;10.004;2024-01-07T05:25:37;0.30;99.90
1578;DHT22;57623;53.608;10.004;2024-01-07T05:28:05;0.20;99.90
1578;DHT22;57623;53.608;10.004;2024-01-07T05:30:33;0.20;99.90
1578;DHT22;57623;53.608;10.004;2024-01-07T05:33:02;0.20;99.90
1578;DHT22;57623;53.608;10.004;2024-01-07T05:35:31;0.20;99.90
1578;DHT22;57623;53.608;10.004;2024-01-07T05:37:59;0.20;99.90
1578;DHT22;57623;53.608;10.004;2024-01-07T05:40:27;0.20;99.90
1578;DHT22;57623;53.608;10.004;2024-01-07T05:42:55;0.20;99.90
1578;DHT22;57623;53.608;10.004;2024-01-07T05:45:24;0.20;99.90
1578;DHT22;57623;53.608;10.004;2024-01-07T05:47:52;0.20;99.90
1578;DHT22;57623;53.608;10.004;2024-01-07T05:50:20;0.20;99.90
1578;DHT22;57623;53.608;10.004;2024-01-07T05:52:49;0.20;99.90
1578;DHT22;57623;53.608;10.004;2024-01-07T05:55:17;0.20;99.90
1578;DHT22;57623;53.608;10.004;2024-01-07T05:57:45;0.20;99.90
1578;DHT22;57623;53.608;10.004;2024-01-07T06:00:14;0.20;99.90
1578;DHT22;57623;53.608;10.004;2024-01-07T06:02:42;0.20;99.90
1578;DHT22;57623;53.608;10.004;2024-01-07T06:05:10;0.20;99.90
1578;DHT22;57623;53.608;10.004;2024-01-07T06:07:38;0.20;99.90
1578;DHT22;57623;53.608;10.004;2024-01-07T06:10:08;0.20;99.90
1578;DHT22;57623;53.608;10.004;2024-01-07T06:12:36;0.10;99.90
1578;DHT22;57623;53.608;10.004;2024-01-07T06:15:05;0.20;99.90
1578;DHT22;57623;53.608;10.004;2024-01-07T06:17:33;0.20;99.90
1578;DHT22;57623;53.608;10.004;2024-01-07T06:20:01;0.20;99.90
1578;DHT22;57623;53.608;10.004;2024-01-07T06:22:30;0.20;99.90
1578;DHT22;57623;53.608;10.004;2024-01-07T06:24:58;0.20;99.90
1578;DHT22;57623;53.608;10.004;2024-01-07T06:27:30;0.20;99.90
1578;DHT22;57623;53.608;10.004;2024-01-07T06:29:58;0.20;99.90
1578;DHT22;57623;53.608;10.004;2024-01-07T06:32:26;0.20;99.90
1578;DHT22;57623;53.608;10.004;2024-01-07T06:34:54;0.20;99.90
1578;DHT22;57623;53.608;10.004;2024-01-07T06:37:22;0.20;99.90
1578;DHT22;57623;53.608;10.004;2024-01-07T06:39:50;0.20;99.90
1578;DHT22;57623;53.608;10.004;2024-01-07T06:42:18;0.20;99.90
1578;DHT22;57623;53.608;10.004;2024-01-07T06:44:47;0.20;99.90
1578;DHT22;57623;53.608;10.004;2024-01-07T06:47:15;0.20;99.90
1578;DHT22;57623;53.608;10.004;2024-01-07T06:49:43;0.10;99.90
1578;DHT22;57623;53.608;10.004;2024-01-07T06:52:11;0.20;99.90
1578;DHT22;57623;53.608;10.004;2024-01-07T06:54:39;0.10;99.90
1578;DHT22;57623;53.608;10.004;2024-01-07T06:57:07;0.20;99.90
1578;DHT22;57623;53.608;10.004;2024-01-07T06:59:35;0.20;99.90
1578;DHT22;57623;53.608;10.004;2024-01-07T07:02:05;0.20;99.90
1578;DHT22;57623;53.608;10.004;2024-01-07T07:04:33;0.20;99.90
1578;DHT22;57623;53.608;10.004;2024-01-07T07:07:01;0.20;99.90
1578;DHT22;57623;53.608;10.004;2024-01-07T07:09:29;0.20;99.90
1578;DHT22;57623;53.608;10.004;2024-01-07T07:11:57;0.30;99.90
1578;DHT22;57623;53.608;10.004;2024-01-07T07:14:25;0.30;99.90
1578;DHT22;57623;53.608;10.004;2024-01-07T07:16:53;0.30;99.90
1578;DHT22;57623;53.608;10.004;2024-01-07T07:19:22;0.30;99.90
1578;DHT22;57623;53.608;10.004;2024-01-07T07:21:50;0.30;99.90
1578;DHT22;57623;53.608;10.004;2024-01-07T07:24:18;0.30;99.90
1578;DHT22;57623;53.608;10.004;2024-01-07T07:26:46;0.20;99.90
1578;DHT22;57623;53.608;10.004;2024-01-07T07:29:14;0.30;99.90
1578;DHT22;57623;53.608;10.004;2024-01-07T07:31:42;0.30;99.90
1578;DHT22;57623;53.608;10.004;2024-01-07T07:34:12;0.30;99.90
1578;DHT22;57623;53.608;10.004;2024-01-07T07:36:41;0.30;99.90
1578;DHT22;57623;53.608;10.004;2024-01-07T07:39:11;0.30;99.90
1578;DHT22;57623;53.608;10.004;2024-01-07T07:41:41;0.30;99.90
1578;DHT22;57623;53.608;10.004;2024-01-07T07:44:09;0.30;99.90
1578;DHT22;57623;53.608;10.004;2024-01-07T07:46:36;0.30;99.90
1578;DHT22;57623;53.608;10.004;2024-01-07T07:49:05;0.30;99.90
1578;DHT22;57623;53.608;10.004;2024-01-07T07:51:33;0.30;99.90
1578;DHT22;57623;53.608;10.004;2024-01-07T07:54:02;0.30;99.90
1578;DHT22;57623;53.608;10.004;2024-01-07T07:56:31;0.20;99.90
1578;DHT22;57623;53.608;10.004;2024-01-07T07:58:59;0.20;99.90
1578;DHT22;57623;53.608;10.004;2024-01-07T08:01:27;0.20;99.90
1578;DHT22;57623;53.608;10.004;2024-01-07T08:03:55;0.20;99.90
1578;DHT22;57623;53.608;10.004;2024-01-07T08:06:23;0.10;99.90
1578;DHT22;57623;53.608;10.004;2024-01-07T08:08:51;0.10;99.90
1578;DHT22;57623;53.608;10.004;2024-01-07T08:11:20;0.10;99.90
1578;DHT22;57623;53.608;10.004;2024-01-07T08:13:48;0.00;99.90
1578;DHT22;57623;53.608;10.004;2024-01-07T08:16:16;0.00;99.90
1578;DHT22;57623;53.608;10.004;2024-01-07T08:18:46;0.00;99.90
1578;DHT22;57623;53.608;10.004;2024-01-07T08:21:14;0.00;99.90
1578;DHT22;57623;53.608;10.004;2024-01-07T08:23:42;0.00;99.90
1578;DHT22;57623;53.608;10.004;2024-01-07T08:26:10;0.00;99.90
1578;DHT22;57623;53.608;10.004;2024-01-07T08:28:40;0.00;99.90
1578;DHT22;57623;53.608;10.004;2024-01-07T08:31:08;-0.10;99.90
1578;DHT22;57623;53.608;10.004;2024-01-07T08:33:37;-0.10;99.90
1578;DHT22;57623;53.608;10.004;2024-01-07T08:36:06;-0.10;99.90
1578;DHT22;57623;53.608;10.004;2024-01-07T08:38:34;-0.10;99.90
1578;DHT22;57623;53.608;10.004;2024-01-07T08:41:02;-0.10;99.90
1578;DHT22;57623;53.608;10.004;2024-01-07T08:43:31;-0.10;99.90
1578;DHT22;57623;53.608;10.004;2024-01-07T08:46:00;-0.10;99.90
1578;DHT22;57623;53.608;10.004;2024-01-07T08:48:28;-0.10;99.90
1578;DHT22;57623;53.608;10.004;2024-01-07T08:50:56;-0.20;99.90
1578;DHT22;57623;53.608;10.004;2024-01-07T08:53:24;-0.20;99.90
1578;DHT22;57623;53.608;10.004;2024-01-07T08:55:52;-0.20;99.90
1578;DHT22;57623;53.608;10.004;2024-01-07T08:58:20;-0.30;99.90
1578;DHT22;57623;53.608;10.004;2024-01-07T09:00:48;-0.30;99.90
1578;DHT22;57623;53.608;10.004;2024-01-07T09:03:18;-0.30;99.90
1578;DHT22;57623;53.608;10.004;2024-01-07T09:05:45;-0.30;99.90
1578;DHT22;57623;53.608;10.004;2024-01-07T09:08:13;-0.30;99.90
1578;DHT22;57623;53.608;10.004;2024-01-07T09:10:42;-0.40;99.90
1578;DHT22;57623;53.608;10.004;2024-01-07T09:13:10;-0.40;99.90
1578;DHT22;57623;53.608;10.004;2024-01-07T09:15:38;-0.30;99.90
1578;DHT22;57623;53.608;10.004;2024-01-07T09:18:06;-0.30;99.90
1578;DHT22;57623;53.608;10.004;2024-01-07T09:20:36;-0.30;99.90
1578;DHT22;57623;53.608;10.004;2024-01-07T09:23:04;-0.30;99.90
1578;DHT22;57623;53.608;10.004;2024-01-07T09:25:32;-0.30;99.90
1578;DHT22;57623;53.608;10.004;2024-01-07T09:28:00;-0.30;99.90
1578;DHT22;57623;53.608;10.004;2024-01-07T09:30:28;-0.40;99.90
1578;DHT22;57623;53.608;10.004;2024-01-07T09:32:56;-0.40;99.90
1578;DHT22;57623;53.608;10.004;2024-01-07T09:35:24;-0.40;99.90
1578;DHT22;57623;53.608;10.004;2024-01-07T09:37:54;-0.40;99.90
1578;DHT22;57623;53.608;10.004;2024-01-07T09:40:22;-0.40;99.90
1578;DHT22;57623;53.608;10.004;2024-01-07T09:42:50;-0.50;99.90
1578;DHT22;57623;53.608;10.004;2024-01-07T09:45:19;-0.50;99.90
1578;DHT22;57623;53.608;10.004;2024-01-07T09:47:48;-0.50;99.90
1578;DHT22;57623;53.608;10.004;2024-01-07T09:50:17;-0.50;99.90
1578;DHT22;57623;53.608;10.004;2024-01-07T09:52:46;-0.50;99.90
1578;DHT22;57623;53.608;10.004;2024-01-07T09:55:25;-0.50;99.90
1578;DHT22;57623;53.608;10.004;2024-01-07T09:57:54;-0.50;99.90
1578;DHT22;57623;53.608;10.004;2024-01-07T10:00:22;-0.50;99.90
1578;DHT22;57623;53.608;10.004;2024-01-07T10:02:50;-0.50;99.90
1578;DHT22;57623;53.608;10.004;2024-01-07T10:05:18;-0.50;99.90
1578;DHT22;57623;53.608;10.004;2024-01-07T10:07:47;-0.50;99.90
1578;DHT22;57623;53.608;10.004;2024-01-07T10:10:17;-0.60;99.90
1578;DHT22;57623;53.608;10.004;2024-01-07T10:12:45;-0.50;99.90
1578;DHT22;57623;53.608;10.004;2024-01-07T10:15:14;-0.60;99.90
1578;DHT22;57623;53.608;10.004;2024-01-07T10:17:42;-0.60;99.90
1578;DHT22;57623;53.608;10.004;2024-01-07T10:20:12;-0.60;99.90
1578;DHT22;57623;53.608;10.004;2024-01-07T10:22:40;-0.60;99.90
1578;DHT22;57623;53.608;10.004;2024-01-07T10:25:08;-0.50;99.90
1578;DHT22;57623;53.608;10.004;2024-01-07T10:27:37;-0.50;99.90
1578;DHT22;57623;53.608;10.004;2024-01-07T10:30:06;-0.40;99.90
1578;DHT22;57623;53.608;10.004;2024-01-07T10:32:35;-0.40;99.90
1578;DHT22;57623;53.608;10.004;2024-01-07T10:35:12;-0.30;99.90
1578;DHT22;57623;53.608;10.004;2024-01-07T10:37:41;-0.30;99.90
1578;DHT22;57623;53.608;10.004;2024-01-07T10:40:11;-0.20;99.90
1578;DHT22;57623;53.608;10.004;2024-01-07T10:42:43;-0.20;99.90
1578;DHT22;57623;53.608;10.004;2024-01-07T10:45:12;-0.10;99.90
1578;DHT22;57623;53.608;10.004;2024-01-07T10:47:44;0.00;99.90
1578;DHT22;57623;53.608;10.004;2024-01-07T10:50:15;0.00;99.90
1578;DHT22;57623;53.608;10.004;2024-01-07T10:52:49;0.10;99.90
1578;DHT22;57623;53.608;10.004;2024-01-07T10:55:18;0.10;99.90
1578;DHT22;57623;53.608;10.004;2024-01-07T10:57:49;0.10;99.90
1578;DHT22;57623;53.608;10.004;2024-01-07T11:00:17;0.10;99.90
1578;DHT22;57623;53.608;10.004;2024-01-07T11:02:55;0.10;99.90
1578;DHT22;57623;53.608;10.004;2024-01-07T11:05:31;0.10;99.90
1578;DHT22;57623;53.608;10.004;2024-01-07T11:08:06;0.10;99.90
1578;DHT22;57623;53.608;10.004;2024-01-07T11:10:39;0.00;99.90
1578;DHT22;57623;53.608;10.004;2024-01-07T11:13:35;0.00;99.90
1578;DHT22;57623;53.608;10.004;2024-01-07T11:16:05;0.00;99.90
1578;DHT22;57623;53.608;10.004;2024-01-07T11:18:38;0.10;99.90
1578;DHT22;57623;53.608;10.004;2024-01-07T11:21:07;0.20;99.90
1578;DHT22;57623;53.608;10.004;2024-01-07T11:23:37;0.20;99.90
1578;DHT22;57623;53.608;10.004;2024-01-07T11:26:10;0.30;99.90
1578;DHT22;57623;53.608;10.004;2024-01-07T11:28:45;0.20;99.90
1578;DHT22;57623;53.608;10.004;2024-01-07T11:31:15;0.20;99.90
1578;DHT22;57623;53.608;10.004;2024-01-07T11:33:45;0.20;99.90
1578;DHT22;57623;53.608;10.004;2024-01-07T11:36:15;0.20;99.90
1578;DHT22;57623;53.608;10.004;2024-01-07T11:38:43;0.20;99.90
1578;DHT22;57623;53.608;10.004;2024-01-07T11:41:16;0.20;99.90
1578;DHT22;57623;53.608;10.004;2024-01-07T11:43:56;0.10;99.90
1578;DHT22;57623;53.608;10.004;2024-01-07T11:46:32;0.10;99.90
1578;DHT22;57623;53.608;10.004;2024-01-07T11:49:01;0.10;99.90
1578;DHT22;57623;53.608;10.004;2024-01-07T11:51:31;0.10;99.90
1578;DHT22;57623;53.608;10.004;2024-01-07T11:54:01;0.20;99.90
1578;DHT22;57623;53.608;10.004;2024-01-07T11:56:29;0.30;99.90
1578;DHT22;57623;53.608;10.004;2024-01-07T11:58:59;0.30;99.90
1578;DHT22;57623;53.608;10.004;2024-01-07T12:01:27;0.30;99.90
1578;DHT22;57623;53.608;10.004;2024-01-07T12:03:56;0.30;99.90
1578;DHT22;57623;53.608;10.004;2024-01-07T12:06:24;0.30;99.90
1578;DHT22;57623;53.608;10.004;2024-01-07T12:08:53;0.40;99.90
1578;DHT22;57623;53.608;10.004;2024-01-07T12:11:21;0.40;99.90
1578;DHT22;57623;53.608;10.004;2024-01-07T12:13:50;0.50;99.90
1578;DHT22;57623;53.608;10.004;2024-01-07T12:16:20;0.60;99.90
1578;DHT22;57623;53.608;10.004;2024-01-07T12:18:48;0.50;99.90
1578;DHT22;57623;53.608;10.004;2024-01-07T12:21:19;0.50;99.90
1578;DHT22;57623;53.608;10.004;2024-01-07T12:23:48;0.40;99.90
1578;DHT22;57623;53.608;10.004;2024-01-07T12:26:17;0.40;99.90
1578;DHT22;57623;53.608;10.004;2024-01-07T12:28:52;0.40;99.90
1578;DHT22;57623;53.608;10.004;2024-01-07T12:31:21;0.40;99.90
1578;DHT22;57623;53.608;10.004;2024-01-07T12:33:51;0.40;99.90
1578;DHT22;57623;53.608;10.004;2024-01-07T12:36:21;0.50;99.90
1578;DHT22;57623;53.608;10.004;2024-01-07T12:38:49;0.60;99.90
1578;DHT22;57623;53.608;10.004;2024-01-07T12:41:18;0.70;99.90
1578;DHT22;57623;53.608;10.004;2024-01-07T12:43:46;0.80;99.90
1578;DHT22;57623;53.608;10.004;2024-01-07T12:46:14;0.90;99.90
1578;DHT22;57623;53.608;10.004;2024-01-07T12:48:43;0.80;99.90
1578;DHT22;57623;53.608;10.004;2024-01-07T12:51:11;0.80;99.90
1578;DHT22;57623;53.608;10.004;2024-01-07T12:53:40;0.90;99.90
1578;DHT22;57623;53.608;10.004;2024-01-07T12:56:08;0.80;99.90
1578;DHT22;57623;53.608;10.004;2024-01-07T12:58:36;0.80;99.90
1578;DHT22;57623;53.608;10.004;2024-01-07T13:01:04;0.80;99.90
1578;DHT22;57623;53.608;10.004;2024-01-07T13:03:32;0.80;99.90
1578;DHT22;57623;53.608;10.004;2024-01-07T13:06:02;0.90;99.90
1578;DHT22;57623;53.608;10.004;2024-01-07T13:08:30;0.90;99.90
1578;DHT22;57623;53.608;10.004;2024-01-07T13:10:58;0.90;99.90
1578;DHT22;57623;53.608;10.004;2024-01-07T13:13:27;0.80;99.90
1578;DHT22;57623;53.608;10.004;2024-01-07T13:15:55;0.70;99.90
1578;DHT22;57623;53.608;10.004;2024-01-07T13:18:28;0.60;99.90
1578;DHT22;57623;53.608;10.004;2024-01-07T13:20:56;0.50;99.90
1578;DHT22;57623;53.608;10.004;2024-01-07T13:23:26;0.40;99.90
1578;DHT22;57623;53.608;10.004;2024-01-07T13:25:55;0.30;99.90
1578;DHT22;57623;53.608;10.004;2024-01-07T13:28:23;0.30;99.90
1578;DHT22;57623;53.608;10.004;2024-01-07T13:30:51;0.20;99.90
1578;DHT22;57623;53.608;10.004;2024-01-07T13:33:19;0.20;99.90
1578;DHT22;57623;53.608;10.004;2024-01-07T13:35:48;0.10;99.90
1578;DHT22;57623;53.608;10.004;2024-01-07T13:38:16;0.10;99.90
1578;DHT22;57623;53.608;10.004;2024-01-07T13:40:46;0.00;99.90
1578;DHT22;57623;53.608;10.004;2024-01-07T13:43:14;-0.10;99.90
1578;DHT22;57623;53.608;10.004;2024-01-07T13:45:42;-0.10;99.90
1578;DHT22;57623;53.608;10.004;2024-01-07T13:48:10;-0.10;99.90
1578;DHT22;57623;53.608;10.004;2024-01-07T13:50:38;-0.20;99.90
1578;DHT22;57623;53.608;10.004;2024-01-07T13:53:06;-0.20;99.90
1578;DHT22;57623;53.608;10.004;2024-01-07T13:55:34;-0.30;99.90
1578;DHT22;57623;53.608;10.004;2024-01-07T13:58:04;-0.30;99.90
1578;DHT22;57623;53.608;10.004;2024-01-07T14:00:32;-0.40;99.90
1578;DHT22;57623;53.608;10.004;2024-01-07T14:03:00;-0.40;99.90
1578;DHT22;57623;53.608;10.004;2024-01-07T14:05:29;-0.40;99.90
1578;DHT22;57623;53.608;10.004;2024-01-07T14:07:57;-0.40;99.90
1578;DHT22;57623;53.608;10.004;2024-01-07T14:10:24;-0.50;99.90
1578;DHT22;57623;53.608;10.004;2024-01-07T14:12:53;-0.50;99.90
1578;DHT22;57623;53.608;10.004;2024-01-07T14:15:22;-0.50;99.90
1578;DHT22;57623;53.608;10.004;2024-01-07T14:17:50;-0.60;99.90
1578;DHT22;57623;53.608;10.004;2024-01-07T14:20:18;-0.60;99.90
1578;DHT22;57623;53.608;10.004;2024-01-07T14:22:48;-0.60;99.90
1578;DHT22;57623;53.608;10.004;2024-01-07T14:25:16;-0.70;99.90
1578;DHT22;57623;53.608;10.004;2024-01-07T14:27:44;-0.70;99.90
1578;DHT22;57623;53.608;10.004;2024-01-07T14:30:13;-0.70;99.90
1578;DHT22;57623;53.608;10.004;2024-01-07T14:32:42;-0.80;99.90
1578;DHT22;57623;53.608;10.004;2024-01-07T14:35:11;-0.80;99.90
1578;DHT22;57623;53.608;10.004;2024-01-07T14:37:39;-0.90;99.90
1578;DHT22;57623;53.608;10.004;2024-01-07T14:40:08;-0.90;99.90
1578;DHT22;57623;53.608;10.004;2024-01-07T14:42:36;-0.90;99.90
1578;DHT22;57623;53.608;10.004;2024-01-07T14:45:05;-1.00;99.90
1578;DHT22;57623;53.608;10.004;2024-01-07T14:47:33;-1.00;99.90
1578;DHT22;57623;53.608;10.004;2024-01-07T14:50:03;-1.00;99.90
1578;DHT22;57623;53.608;10.004;2024-01-07T14:52:34;-1.10;99.90
1578;DHT22;57623;53.608;10.004;2024-01-07T14:55:02;-1.10;99.90
1578;DHT22;57623;53.608;10.004;2024-01-07T14:57:30;-1.10;99.90
1578;DHT22;57623;53.608;10.004;2024-01-07T14:59:58;-1.10;99.90
1578;DHT22;57623;53.608;10.004;2024-01-07T15:02:26;-1.10;99.90
1578;DHT22;57623;53.608;10.004;2024-01-07T15:04:54;-1.10;99.90
1578;DHT22;57623;53.608;10.004;2024-01-07T15:07:24;-1.10;99.90
1578;DHT22;57623;53.608;10.004;2024-01-07T15:09:52;-1.10;99.90
1578;DHT22;57623;53.608;10.004;2024-01-07T15:12:20;-1.10;99.90
1578;DHT22;57623;53.608;10.004;2024-01-07T15:14:49;-1.10;99.90
1578;DHT22;57623;53.608;10.004;2024-01-07T15:17:18;-1.10;99.90
1578;DHT22;57623;53.608;10.004;2024-01-07T15:19:46;-1.20;99.90
1578;DHT22;57623;53.608;10.004;2024-01-07T15:22:14;-1.10;99.90
1578;DHT22;57623;53.608;10.004;2024-01-07T15:24:43;-1.10;99.90
1578;DHT22;57623;53.608;10.004;2024-01-07T15:27:11;-1.10;99.90
1578;DHT22;57623;53.608;10.004;2024-01-07T15:29:39;-1.10;99.90
1578;DHT22;57623;53.608;10.004;2024-01-07T15:32:07;-1.10;99.90
1578;DHT22;57623;53.608;10.004;2024-01-07T15:34:35;-1.10;99.90
1578;DHT22;57623;53.608;10.004;2024-01-07T15:37:03;-1.10;99.90
1578;DHT22;57623;53.608;10.004;2024-01-07T15:39:31;-1.20;99.90
1578;DHT22;57623;53.608;10.004;2024-01-07T15:42:01;-1.10;99.90
1578;DHT22;57623;53.608;10.004;2024-01-07T15:44:29;-1.20;99.90
1578;DHT22;57623;53.608;10.004;2024-01-07T15:46:58;-1.20;99.90